Time;durP1;ratioP1;P1;durP2;ratioP2;P2;SDS_P1;SDS_P2;PMS_P1;PMS_P2;Temp;Humidity;BMP_temperature;BMP_pressure;BME280_temperature;BME280_humidity;BME280_pressure;Samples;Min_cycle;Max_cycle;Signal;HPM_P1;HPM_P2
2023/06/30 00:01:13;;;;;;;0.10;0.10;;;20.90;99.90;;;;;;5019844;28;20237;-81
2023/06/30 00:03:39;;;;;;;0.10;0.10;;;20.90;99.90;;;;;;5023761;28;20206;-81
2023/06/30 00:06:04;;;;;;;0.10;0.10;;;21.00;99.90;;;;;;5019306;28;20198;-81
2023/06/30 00:08:32;;;;;;;0.10;0.10;;;21.10;99.90;;;;;;5023272;28;20190;-81
2023/06/30 00:10:58;;;;;;;0.10;0.10;;;21.20;99.90;;;;;;5030542;28;20204;-81
2023/06/30 00:13:24;;;;;;;0.10;0.10;;;21.20;99.90;;;;;;5021412;28;20206;-81
2023/06/30 00:15:49;;;;;;;0.10;0.10;;;21.20;99.90;;;;;;5020240;28;20208;-80
2023/06/30 00:18:15;;;;;;;0.10;0.10;;;21.30;99.90;;;;;;5020990;28;20777;-82
2023/06/30 00:20:40;;;;;;;0.10;0.10;;;21.20;99.90;;;;;;5019413;28;20586;-81
2023/06/30 00:23:09;;;;;;;0.10;0.10;;;21.10;99.90;;;;;;5021383;28;20202;-80
2023/06/30 00:25:35;;;;;;;0.10;0.10;;;21.00;99.90;;;;;;5019404;28;20178;-81
2023/06/30 00:28:00;;;;;;;0.10;0.10;;;20.90;99.90;;;;;;5022090;28;20675;-81
2023/06/30 00:30:26;;;;;;;0.10;0.10;;;20.90;99.90;;;;;;5020177;28;20265;-80
2023/06/30 00:32:51;;;;;;;0.10;0.10;;;21.00;99.90;;;;;;5020077;28;20256;-81
2023/06/30 00:35:17;;;;;;;0.20;0.20;;;21.00;99.90;;;;;;5019260;28;20868;-81
2023/06/30 00:37:42;;;;;;;0.10;0.10;;;20.90;99.90;;;;;;5020053;28;20550;-81
2023/06/30 00:40:08;;;;;;;0.10;0.10;;;20.80;99.90;;;;;;5022138;28;20187;-81
2023/06/30 00:42:34;;;;;;;0.10;0.10;;;20.70;99.90;;;;;;5019159;28;20186;-81
2023/06/30 00:45:00;;;;;;;0.30;0.30;;;20.70;99.90;;;;;;5019439;28;20503;-81
2023/06/30 00:47:26;;;;;;;0.10;0.10;;;20.70;99.90;;;;;;5022110;28;20247;-80
2023/06/30 00:49:52;;;;;;;0.10;0.10;;;20.70;99.90;;;;;;5020426;28;20216;-80
2023/06/30 00:52:18;;;;;;;0.10;0.10;;;20.80;99.90;;;;;;5017962;28;20263;-81
2023/06/30 00:54:43;;;;;;;0.10;0.10;;;20.90;99.90;;;;;;5021246;28;20198;-81
2023/06/30 00:57:09;;;;;;;0.10;0.10;;;21.00;99.90;;;;;;5021889;28;20182;-81
2023/06/30 00:59:34;;;;;;;0.10;0.10;;;21.00;99.90;;;;;;5021954;28;20271;-81
2023/06/30 01:02:15;;;;;;;0.10;0.10;;;21.00;99.90;;;;;;5016164;28;20514;-81
2023/06/30 01:05:00;;;;;;;0.10;0.10;;;21.10;99.90;;;;;;5019998;28;20292;-82
2023/06/30 01:07:38;;;;;;;0.10;0.10;;;21.10;99.90;;;;;;5019155;28;20186;-81
2023/06/30 01:10:17;;;;;;;0.10;0.10;;;21.00;99.90;;;;;;5019948;28;20202;-80
2023/06/30 01:12:44;;;;;;;0.10;0.10;;;20.80;99.90;;;;;;5018707;28;20659;-81
2023/06/30 01:15:11;;;;;;;0.10;0.10;;;20.70;99.90;;;;;;5019513;28;20679;-81
2023/06/30 01:17:41;;;;;;;0.10;0.10;;;20.70;99.90;;;;;;5019717;28;20187;-81
2023/06/30 01:20:10;;;;;;;0.10;0.10;;;20.50;99.90;;;;;;5022489;28;20236;-81
2023/06/30 01:22:43;;;;;;;0.10;0.10;;;20.40;99.90;;;;;;5016776;28;20182;-81
2023/06/30 01:25:18;;;;;;;0.37;0.37;;;20.40;99.90;;;;;;5021170;28;20239;-81
2023/06/30 01:27:44;;;;;;;0.10;0.10;;;20.40;99.90;;;;;;5019580;28;20292;-81
2023/06/30 01:30:10;;;;;;;0.10;0.10;;;20.40;99.90;;;;;;5018924;28;20259;-80
2023/06/30 01:32:36;;;;;;;0.10;0.10;;;20.40;99.90;;;;;;5017241;28;20184;-81
2023/06/30 01:35:01;;;;;;;0.10;0.10;;;20.30;99.90;;;;;;5020361;28;20183;-81
2023/06/30 01:37:27;;;;;;;0.10;0.10;;;20.40;99.90;;;;;;5020330;28;20703;-81
2023/06/30 01:39:52;;;;;;;0.10;0.10;;;20.40;99.90;;;;;;5020876;28;20272;-80
2023/06/30 01:42:18;;;;;;;0.10;0.10;;;20.40;99.90;;;;;;5018484;28;20226;-80
2023/06/30 01:44:45;;;;;;;0.10;0.10;;;20.40;99.90;;;;;;5019922;28;20210;-81
2023/06/30 01:47:11;;;;;;;0.10;0.10;;;20.50;99.90;;;;;;5018265;28;20192;-81
2023/06/30 01:49:37;;;;;;;0.10;0.10;;;20.40;99.90;;;;;;5020344;28;20248;-81
2023/06/30 01:52:03;;;;;;;1.73;1.70;;;20.30;99.90;;;;;;5018339;28;20214;-81
2023/06/30 01:54:29;;;;;;;0.10;0.10;;;20.20;99.90;;;;;;5020479;28;20194;-81
2023/06/30 01:56:54;;;;;;;0.10;0.10;;;20.20;99.90;;;;;;5022626;28;20187;-81
2023/06/30 01:59:20;;;;;;;0.10;0.10;;;20.10;99.90;;;;;;5023000;28;20209;-81
2023/06/30 02:01:46;;;;;;;0.10;0.10;;;20.20;99.90;;;;;;5021143;28;20212;-81
2023/06/30 02:04:12;;;;;;;0.10;0.10;;;20.10;99.90;;;;;;5023570;28;20206;-81
2023/06/30 02:06:38;;;;;;;0.10;0.10;;;20.20;99.90;;;;;;5023528;28;20203;-81
2023/06/30 02:09:04;;;;;;;0.10;0.10;;;20.30;99.90;;;;;;5024281;28;20211;-81
2023/06/30 02:11:30;;;;;;;0.10;0.10;;;20.40;99.90;;;;;;5022670;28;20183;-81
2023/06/30 02:13:55;;;;;;;0.10;0.10;;;20.40;99.90;;;;;;5024683;28;20198;-80
2023/06/30 02:16:21;;;;;;;0.10;0.10;;;20.30;99.90;;;;;;5022331;28;20178;-81
2023/06/30 02:18:46;;;;;;;0.10;0.10;;;20.30;99.90;;;;;;5023388;28;20664;-81
2023/06/30 02:21:12;;;;;;;0.10;0.10;;;20.20;99.90;;;;;;5020967;28;20190;-81
2023/06/30 02:23:37;;;;;;;0.10;0.10;;;20.20;99.90;;;;;;5024817;28;20245;-81
2023/06/30 02:26:03;;;;;;;0.10;0.10;;;20.30;99.90;;;;;;5032067;28;20187;-81
2023/06/30 02:28:28;;;;;;;0.10;0.10;;;20.30;99.90;;;;;;5023185;28;20866;-81
2023/06/30 02:30:55;;;;;;;0.10;0.10;;;20.30;99.90;;;;;;5020702;28;20210;-81
2023/06/30 02:33:21;;;;;;;0.10;0.10;;;20.30;99.90;;;;;;5024062;28;20204;-81
2023/06/30 02:35:46;;;;;;;2.43;1.70;;;20.30;99.90;;;;;;5023919;28;20176;-80
2023/06/30 02:38:11;;;;;;;0.10;0.10;;;20.30;99.90;;;;;;5022323;28;20186;-81
2023/06/30 02:40:37;;;;;;;0.10;0.10;;;20.20;99.90;;;;;;5024402;28;20206;-82
2023/06/30 02:43:03;;;;;;;0.10;0.10;;;20.20;99.90;;;;;;5023343;28;20630;-81
2023/06/30 02:45:28;;;;;;;0.10;0.10;;;20.20;99.90;;;;;;5022192;28;20261;-81
2023/06/30 02:47:54;;;;;;;0.10;0.10;;;20.30;99.90;;;;;;5023589;28;20216;-82
2023/06/30 02:50:29;;;;;;;0.10;0.10;;;20.30;99.90;;;;;;5021891;28;20228;-82
2023/06/30 02:52:55;;;;;;;0.10;0.10;;;20.50;99.90;;;;;;5021959;28;20632;-81
2023/06/30 02:55:21;;;;;;;0.10;0.10;;;20.50;99.90;;;;;;5033690;28;20225;-81
2023/06/30 02:57:46;;;;;;;0.10;0.10;;;20.60;99.90;;;;;;5023276;28;20186;-81
2023/06/30 03:00:12;;;;;;;0.10;0.10;;;20.50;99.90;;;;;;5021259;28;20353;-81
2023/06/30 03:02:38;;;;;;;0.10;0.10;;;19.80;99.90;;;;;;5020656;28;20190;-81
2023/06/30 03:05:04;;;;;;;0.10;0.10;;;19.70;99.90;;;;;;5023140;28;20201;-81
2023/06/30 03:07:30;;;;;;;0.10;0.10;;;19.40;99.90;;;;;;5021642;28;20186;-81
2023/06/30 03:09:56;;;;;;;0.10;0.10;;;19.50;99.90;;;;;;5023965;28;20876;-81
2023/06/30 03:12:21;;;;;;;0.10;0.10;;;19.60;99.90;;;;;;5023009;28;20193;-81
2023/06/30 03:14:47;;;;;;;0.10;0.10;;;19.80;99.90;;;;;;5022096;28;20255;-81
2023/06/30 03:17:12;;;;;;;0.10;0.10;;;19.90;99.90;;;;;;5019159;28;20191;-81
2023/06/30 03:19:38;;;;;;;0.10;0.10;;;20.00;99.90;;;;;;5021987;28;20182;-81
2023/06/30 03:22:04;;;;;;;0.10;0.10;;;20.10;99.90;;;;;;5019728;28;20191;-81
2023/06/30 03:24:29;;;;;;;0.10;0.10;;;20.20;99.90;;;;;;5022884;28;20568;-81
2023/06/30 03:26:55;;;;;;;0.10;0.10;;;19.90;99.90;;;;;;5023930;28;20205;-81
2023/06/30 03:29:20;;;;;;;0.10;0.10;;;19.80;99.90;;;;;;5017390;28;20264;-81
2023/06/30 03:31:46;;;;;;;0.10;0.10;;;19.80;99.90;;;;;;5015868;28;20191;-82
2023/06/30 03:34:11;;;;;;;0.10;0.10;;;19.80;99.90;;;;;;5018954;28;20207;-81
2023/06/30 03:36:37;;;;;;;0.10;0.10;;;19.70;99.90;;;;;;5020826;28;20214;-80
2023/06/30 03:39:04;;;;;;;0.10;0.10;;;19.70;99.90;;;;;;5020347;28;20191;-80
2023/06/30 03:41:30;;;;;;;0.10;0.10;;;19.60;99.90;;;;;;5020608;28;20194;-80
2023/06/30 03:43:56;;;;;;;0.10;0.10;;;19.70;99.90;;;;;;5022431;28;20216;-80
2023/06/30 03:46:21;;;;;;;0.10;0.10;;;19.70;99.90;;;;;;5022865;28;20190;-80
2023/06/30 03:48:47;;;;;;;0.10;0.10;;;19.60;99.90;;;;;;5021023;28;20202;-80
2023/06/30 03:51:12;;;;;;;0.33;0.33;;;19.40;99.90;;;;;;5020503;28;20179;-79
2023/06/30 03:53:38;;;;;;;0.10;0.10;;;19.00;99.90;;;;;;5019258;28;20738;-80
2023/06/30 03:56:04;;;;;;;0.10;0.10;;;19.00;99.90;;;;;;5019978;28;20244;-80
2023/06/30 03:58:31;;;;;;;0.47;0.47;;;19.00;99.90;;;;;;5019593;28;20191;-80
2023/06/30 04:00:56;;;;;;;0.10;0.10;;;19.00;99.90;;;;;;5020812;28;20249;-79
2023/06/30 04:03:22;;;;;;;0.10;0.10;;;19.10;99.90;;;;;;5020704;28;20219;-79
2023/06/30 04:05:47;;;;;;;0.10;0.10;;;19.30;99.90;;;;;;5019805;28;20233;-79
2023/06/30 04:08:13;;;;;;;0.10;0.10;;;19.20;99.90;;;;;;5021051;28;20656;-79
2023/06/30 04:10:38;;;;;;;0.10;0.10;;;19.20;99.90;;;;;;5020464;28;20228;-80
2023/06/30 04:13:07;;;;;;;0.10;0.10;;;19.10;99.90;;;;;;5022288;28;20231;-79
2023/06/30 04:15:33;;;;;;;0.10;0.10;;;19.10;99.90;;;;;;5018071;28;20199;-79
2023/06/30 04:17:58;;;;;;;0.10;0.10;;;19.10;99.90;;;;;;5019046;28;20190;-81
2023/06/30 04:20:24;;;;;;;0.10;0.10;;;19.10;99.90;;;;;;5023440;28;20190;-82
2023/06/30 04:22:50;;;;;;;0.10;0.10;;;19.10;99.90;;;;;;5018708;28;20198;-80
2023/06/30 04:25:15;;;;;;;0.10;0.10;;;19.20;99.90;;;;;;5013482;28;20220;-79
2023/06/30 04:27:41;;;;;;;0.10;0.10;;;19.30;99.90;;;;;;5016462;28;20185;-80
2023/06/30 04:30:07;;;;;;;0.10;0.10;;;19.30;99.90;;;;;;5013846;28;20207;-79
2023/06/30 04:32:33;;;;;;;0.10;0.10;;;19.40;99.90;;;;;;5016760;28;20200;-80
2023/06/30 04:34:58;;;;;;;0.10;0.10;;;19.60;99.90;;;;;;5019609;28;20570;-79
2023/06/30 04:37:28;;;;;;;0.10;0.10;;;19.60;99.90;;;;;;5019870;28;20647;-81
2023/06/30 04:39:58;;;;;;;0.10;0.10;;;19.70;99.90;;;;;;5019826;28;20950;-80
2023/06/30 04:42:23;;;;;;;0.10;0.10;;;19.70;99.90;;;;;;5018734;28;20189;-81
2023/06/30 04:44:49;;;;;;;3.17;2.90;;;19.80;99.90;;;;;;5017508;28;20214;-79
2023/06/30 04:47:18;;;;;;;0.10;0.10;;;19.90;99.90;;;;;;5022057;28;20198;-82
2023/06/30 04:49:43;;;;;;;0.10;0.10;;;20.00;99.90;;;;;;5021776;28;20202;-82
2023/06/30 04:52:09;;;;;;;0.10;0.10;;;19.90;99.90;;;;;;5019941;28;20183;-80
2023/06/30 04:54:34;;;;;;;0.10;0.10;;;19.90;99.90;;;;;;5018097;28;20675;-81
2023/06/30 04:57:00;;;;;;;0.10;0.10;;;19.60;99.90;;;;;;5018368;28;20229;-81
2023/06/30 04:59:25;;;;;;;0.10;0.10;;;19.50;99.90;;;;;;5017739;28;20670;-81
2023/06/30 05:01:51;;;;;;;0.10;0.10;;;19.60;99.90;;;;;;5016483;28;20187;-81
2023/06/30 05:04:17;;;;;;;0.10;0.10;;;19.50;99.90;;;;;;5018273;28;20236;-81
2023/06/30 05:06:43;;;;;;;0.10;0.10;;;19.70;99.90;;;;;;5019465;28;20212;-81
2023/06/30 05:09:09;;;;;;;0.10;0.10;;;19.80;99.90;;;;;;5020966;28;20214;-81
2023/06/30 05:11:34;;;;;;;0.10;0.10;;;19.70;99.90;;;;;;5020662;28;20222;-80
2023/06/30 05:14:00;;;;;;;0.10;0.10;;;19.80;99.90;;;;;;5023395;28;20199;-80
2023/06/30 05:16:26;;;;;;;0.10;0.10;;;19.80;99.90;;;;;;5021704;28;20179;-80
2023/06/30 05:18:52;;;;;;;0.20;0.20;;;19.90;99.90;;;;;;5025053;28;20652;-82
2023/06/30 05:21:17;;;;;;;0.10;0.10;;;19.90;99.90;;;;;;5020458;28;20183;-81
2023/06/30 05:23:43;;;;;;;0.10;0.10;;;20.10;99.90;;;;;;5021366;28;20205;-83
2023/06/30 05:26:10;;;;;;;0.10;0.10;;;19.90;99.90;;;;;;5021077;28;20317;-80
2023/06/30 05:28:36;;;;;;;0.10;0.10;;;19.70;99.90;;;;;;5021779;28;20186;-81
2023/06/30 05:31:02;;;;;;;0.10;0.10;;;19.90;99.90;;;;;;5023713;28;20659;-82
2023/06/30 05:33:27;;;;;;;0.10;0.10;;;19.80;99.90;;;;;;5024639;28;20205;-82
2023/06/30 05:35:54;;;;;;;0.10;0.10;;;19.40;99.90;;;;;;5023283;28;20183;-81
2023/06/30 05:38:19;;;;;;;0.10;0.10;;;19.50;99.90;;;;;;5024008;28;20214;-81
2023/06/30 05:40:45;;;;;;;0.10;0.10;;;19.40;99.90;;;;;;5022448;28;20233;-80
2023/06/30 05:43:11;;;;;;;2.90;1.40;;;19.40;99.90;;;;;;5022992;28;20272;-81
2023/06/30 05:45:37;;;;;;;0.10;0.10;;;19.50;99.90;;;;;;5021476;28;20193;-81
2023/06/30 05:48:02;;;;;;;0.10;0.10;;;19.40;99.90;;;;;;5023721;28;20606;-80
2023/06/30 05:50:28;;;;;;;0.10;0.10;;;19.50;99.90;;;;;;5022896;28;20237;-81
2023/06/30 05:52:54;;;;;;;0.10;0.10;;;19.50;99.90;;;;;;5021531;28;20163;-81
2023/06/30 05:55:20;;;;;;;0.10;0.10;;;19.80;99.90;;;;;;5020483;28;20181;-81
2023/06/30 05:57:46;;;;;;;0.10;0.10;;;19.50;99.90;;;;;;5019530;28;20193;-80
2023/06/30 06:00:12;;;;;;;0.10;0.10;;;19.60;99.90;;;;;;5021491;28;20319;-83
2023/06/30 06:02:38;;;;;;;0.10;0.10;;;19.60;99.90;;;;;;5018918;28;20293;-83
2023/06/30 06:05:04;;;;;;;0.10;0.10;;;19.60;99.90;;;;;;5015972;28;20198;-82
2023/06/30 06:07:29;;;;;;;0.10;0.10;;;19.60;99.90;;;;;;5017128;28;20186;-81
2023/06/30 06:09:55;;;;;;;0.10;0.10;;;19.40;99.90;;;;;;5023043;28;20342;-81
2023/06/30 06:12:20;;;;;;;0.10;0.10;;;19.50;99.90;;;;;;5022926;28;20259;-81
2023/06/30 06:14:46;;;;;;;0.10;0.10;;;19.30;99.90;;;;;;5021138;28;20287;-81
2023/06/30 06:17:11;;;;;;;0.10;0.10;;;19.20;99.90;;;;;;5021484;28;20213;-80
2023/06/30 06:19:37;;;;;;;0.10;0.10;;;19.10;99.90;;;;;;5023754;28;20197;-80
2023/06/30 06:22:02;;;;;;;0.10;0.10;;;19.30;99.90;;;;;;5020275;28;20263;-81
2023/06/30 06:24:28;;;;;;;0.10;0.10;;;19.40;99.90;;;;;;5022032;28;20210;-83
2023/06/30 06:26:53;;;;;;;0.10;0.10;;;19.40;99.90;;;;;;5014699;28;20283;-81
2023/06/30 06:29:21;;;;;;;0.10;0.10;;;19.40;99.90;;;;;;5020495;28;20214;-82
2023/06/30 06:31:49;;;;;;;0.10;0.10;;;19.50;99.90;;;;;;5017999;28;20720;-81
2023/06/30 06:34:15;;;;;;;0.10;0.10;;;19.50;99.90;;;;;;5019360;28;20691;-80
2023/06/30 06:36:40;;;;;;;0.10;0.10;;;19.50;99.90;;;;;;5021627;28;20217;-81
2023/06/30 06:39:06;;;;;;;0.10;0.10;;;19.40;99.90;;;;;;5018691;28;20237;-82
2023/06/30 06:41:32;;;;;;;0.10;0.10;;;19.50;99.90;;;;;;5016670;28;20278;-81
2023/06/30 06:43:58;;;;;;;0.10;0.10;;;19.50;99.90;;;;;;5021850;28;20214;-81
2023/06/30 06:46:23;;;;;;;0.10;0.10;;;19.50;99.90;;;;;;5021337;28;20206;-80
2023/06/30 06:48:49;;;;;;;0.10;0.10;;;19.50;99.90;;;;;;5019958;28;20573;-80
2023/06/30 06:51:15;;;;;;;0.10;0.10;;;19.50;99.90;;;;;;5020247;28;20191;-80
2023/06/30 06:53:40;;;;;;;0.10;0.10;;;19.70;99.90;;;;;;5017120;28;20202;-81
2023/06/30 06:56:06;;;;;;;0.10;0.10;;;19.80;99.90;;;;;;5016234;28;20277;-80
2023/06/30 06:58:33;;;;;;;0.10;0.10;;;19.70;99.90;;;;;;5021279;28;20297;-81
2023/06/30 07:00:59;;;;;;;0.10;0.10;;;19.40;99.90;;;;;;5023164;28;21176;-80
2023/06/30 07:03:24;;;;;;;0.10;0.10;;;19.40;99.90;;;;;;5021679;28;20231;-81
2023/06/30 07:05:50;;;;;;;0.10;0.10;;;19.50;99.90;;;;;;5017054;28;20208;-80
2023/06/30 07:08:18;;;;;;;0.10;0.10;;;19.10;99.90;;;;;;5018807;28;20659;-81
2023/06/30 07:10:45;;;;;;;0.10;0.10;;;19.10;99.90;;;;;;5018517;28;20209;-80
2023/06/30 07:13:12;;;;;;;0.10;0.10;;;19.20;99.90;;;;;;5020147;28;20206;-81
2023/06/30 07:15:38;;;;;;;0.10;0.10;;;19.30;99.90;;;;;;5022295;28;20282;-82
2023/06/30 07:18:04;;;;;;;0.10;0.10;;;19.10;99.90;;;;;;5024072;28;20261;-80
2023/06/30 07:20:29;;;;;;;0.10;0.10;;;19.10;99.90;;;;;;5020903;28;20225;-81
2023/06/30 07:22:56;;;;;;;0.10;0.10;;;19.20;99.90;;;;;;5022271;28;20193;-81
2023/06/30 07:25:23;;;;;;;0.10;0.10;;;19.00;99.90;;;;;;5021576;28;20184;-81
2023/06/30 07:27:52;;;;;;;0.10;0.10;;;19.10;99.90;;;;;;5024289;28;20205;-81
2023/06/30 07:30:22;;;;;;;0.10;0.10;;;19.00;99.90;;;;;;5024753;28;20288;-80
2023/06/30 07:32:49;;;;;;;0.10;0.10;;;18.90;99.90;;;;;;5022226;28;20179;-80
2023/06/30 07:35:15;;;;;;;0.10;0.10;;;18.80;99.90;;;;;;5024008;28;20179;-80
2023/06/30 07:37:41;;;;;;;0.10;0.10;;;18.50;99.90;;;;;;5020799;28;20856;-80
2023/06/30 07:40:07;;;;;;;0.10;0.10;;;18.70;99.90;;;;;;5022146;28;20206;-81
2023/06/30 07:42:32;;;;;;;0.10;0.10;;;18.50;99.90;;;;;;5020499;28;20231;-79
2023/06/30 07:44:58;;;;;;;0.10;0.10;;;18.60;99.90;;;;;;5023556;28;20209;-80
2023/06/30 07:47:23;;;;;;;0.10;0.10;;;18.70;99.90;;;;;;5024407;28;20651;-81
2023/06/30 07:49:49;;;;;;;0.10;0.10;;;18.60;99.90;;;;;;5023695;28;20222;-80
2023/06/30 07:52:14;;;;;;;0.10;0.10;;;18.80;99.90;;;;;;5029841;28;20178;-82
2023/06/30 07:54:41;;;;;;;0.10;0.10;;;18.80;99.90;;;;;;5020835;28;20348;-80
2023/06/30 07:57:07;;;;;;;0.10;0.10;;;18.60;99.90;;;;;;5021235;28;20186;-80
2023/06/30 07:59:33;;;;;;;0.10;0.10;;;18.80;99.90;;;;;;5022181;28;20197;-80
2023/06/30 08:01:59;;;;;;;0.10;0.10;;;18.80;99.90;;;;;;5021465;28;20198;-81
2023/06/30 08:04:24;;;;;;;0.10;0.10;;;19.00;99.90;;;;;;5020250;28;20617;-81
2023/06/30 08:06:50;;;;;;;0.10;0.10;;;19.20;99.90;;;;;;5015412;28;20198;-85
2023/06/30 08:09:16;;;;;;;0.10;0.10;;;18.50;99.90;;;;;;5023898;28;20241;-79
2023/06/30 08:11:41;;;;;;;0.10;0.10;;;18.30;99.90;;;;;;5018091;28;20215;-80
2023/06/30 08:14:07;;;;;;;0.10;0.10;;;18.20;99.90;;;;;;5022504;28;20299;-80
2023/06/30 08:16:32;;;;;;;0.10;0.10;;;18.60;99.90;;;;;;5022754;28;20320;-82
2023/06/30 08:18:58;;;;;;;0.00;0.00;;;18.90;99.90;;;;;;5019787;28;20216;-80
2023/06/30 08:21:24;;;;;;;0.10;0.10;;;18.90;99.90;;;;;;5019872;28;20190;-80
2023/06/30 08:23:50;;;;;;;0.10;0.10;;;18.80;99.90;;;;;;5021614;28;20210;-80
2023/06/30 08:26:16;;;;;;;0.10;0.10;;;18.90;99.90;;;;;;5020518;28;20188;-80
2023/06/30 08:28:42;;;;;;;0.10;0.10;;;18.70;99.90;;;;;;5018204;28;20653;-80
2023/06/30 08:31:07;;;;;;;0.10;0.10;;;19.10;99.90;;;;;;5019102;28;20714;-81
2023/06/30 08:33:33;;;;;;;0.10;0.10;;;19.40;99.90;;;;;;5027946;28;20238;-82
2023/06/30 08:35:59;;;;;;;0.10;0.10;;;19.60;99.90;;;;;;5019919;28;20178;-80
2023/06/30 08:38:24;;;;;;;0.10;0.10;;;19.60;99.90;;;;;;5018137;28;20634;-81
2023/06/30 08:40:50;;;;;;;0.10;0.10;;;19.00;99.90;;;;;;5018218;28;20181;-80
2023/06/30 08:43:20;;;;;;;0.10;0.10;;;19.00;99.90;;;;;;5012513;28;20221;-80
2023/06/30 08:45:48;;;;;;;0.10;0.10;;;18.90;99.90;;;;;;5018962;28;20646;-81
2023/06/30 08:48:17;;;;;;;0.10;0.10;;;18.90;99.90;;;;;;5017679;28;21919;-82
2023/06/30 08:50:44;;;;;;;0.10;0.10;;;18.90;99.90;;;;;;5012311;28;20232;-82
2023/06/30 08:53:09;;;;;;;0.10;0.10;;;19.30;99.90;;;;;;5016737;28;20277;-81
2023/06/30 08:55:35;;;;;;;0.10;0.10;;;19.50;99.90;;;;;;5011916;28;20805;-82
2023/06/30 08:58:01;;;;;;;0.10;0.10;;;19.70;99.90;;;;;;5011017;28;20659;-81
2023/06/30 09:00:26;;;;;;;0.10;0.10;;;20.00;99.90;;;;;;5012856;28;20708;-80
2023/06/30 09:02:54;;;;;;;0.10;0.10;;;20.00;99.90;;;;;;5016754;28;20193;-82
2023/06/30 09:05:27;;;;;;;0.10;0.10;;;20.50;99.90;;;;;;5019456;28;20201;-82
2023/06/30 09:07:55;;;;;;;0.10;0.10;;;20.70;99.90;;;;;;5021632;28;20194;-81
2023/06/30 09:10:23;;;;;;;0.10;0.10;;;20.80;99.90;;;;;;5025686;28;20304;-81
2023/06/30 09:12:50;;;;;;;0.10;0.10;;;20.50;99.90;;;;;;5024349;28;20186;-81
2023/06/30 09:15:18;;;;;;;0.10;0.10;;;20.00;99.90;;;;;;5021968;28;20186;-81
2023/06/30 09:17:43;;;;;;;0.10;0.10;;;20.30;99.90;;;;;;5024114;28;20564;-80
2023/06/30 09:20:11;;;;;;;0.10;0.10;;;20.40;99.90;;;;;;5022866;28;20201;-82
2023/06/30 09:22:40;;;;;;;0.10;0.10;;;20.40;99.90;;;;;;5021638;28;20680;-80
2023/06/30 09:25:07;;;;;;;0.10;0.10;;;20.30;99.90;;;;;;5022596;28;20179;-80
2023/06/30 09:27:36;;;;;;;0.10;0.10;;;20.60;99.90;;;;;;5023623;28;20329;-80
2023/06/30 09:30:02;;;;;;;0.10;0.10;;;20.80;99.90;;;;;;5023046;28;20592;-81
2023/06/30 09:32:32;;;;;;;0.10;0.10;;;20.30;99.90;;;;;;5018382;28;20183;-81
2023/06/30 09:35:06;;;;;;;0.10;0.10;;;20.30;99.90;;;;;;5024855;28;20202;-81
2023/06/30 09:37:42;;;;;;;0.10;0.10;;;19.60;99.90;;;;;;5017147;28;20249;-80
2023/06/30 09:40:15;;;;;;;0.10;0.10;;;19.60;99.90;;;;;;5021670;28;20564;-81
2023/06/30 09:42:43;;;;;;;0.10;0.10;;;19.60;99.90;;;;;;5019233;28;20663;-80
2023/06/30 09:45:08;;;;;;;0.10;0.10;;;19.40;99.90;;;;;;5024686;28;20194;-80
2023/06/30 09:47:34;;;;;;;0.10;0.10;;;19.30;99.90;;;;;;5020459;28;20185;-80
2023/06/30 09:50:00;;;;;;;0.10;0.10;;;19.60;99.90;;;;;;5020801;28;20216;-82
2023/06/30 09:52:25;;;;;;;0.10;0.10;;;19.40;99.90;;;;;;5022639;28;20693;-82
2023/06/30 09:54:51;;;;;;;0.10;0.10;;;18.70;99.90;;;;;;5025609;28;20206;-80
2023/06/30 09:57:16;;;;;;;0.10;0.10;;;18.90;99.90;;;;;;5025189;28;20276;-80
2023/06/30 09:59:42;;;;;;;0.10;0.10;;;19.10;99.90;;;;;;5024020;28;20186;-80
2023/06/30 10:02:10;;;;;;;2.07;2.00;;;19.20;99.90;;;;;;5017203;28;20199;-82
2023/06/30 10:04:35;;;;;;;0.10;0.10;;;19.00;99.90;;;;;;5031287;28;20216;-82
2023/06/30 10:07:02;;;;;;;0.10;0.10;;;18.80;99.90;;;;;;5024320;28;20184;-80
2023/06/30 10:09:28;;;;;;;0.10;0.10;;;19.10;99.90;;;;;;5022747;28;20762;-80
2023/06/30 10:11:57;;;;;;;0.10;0.10;;;18.70;99.90;;;;;;5023444;28;20184;-82
2023/06/30 10:14:27;;;;;;;0.10;0.10;;;18.90;99.90;;;;;;5020393;28;20258;-80
2023/06/30 10:16:56;;;;;;;0.10;0.10;;;19.10;99.90;;;;;;5024731;28;20714;-83
2023/06/30 10:19:22;;;;;;;0.10;0.10;;;19.50;99.90;;;;;;5021248;28;20191;-79
2023/06/30 10:21:49;;;;;;;0.10;0.10;;;19.60;99.90;;;;;;5020834;28;20253;-81
2023/06/30 10:24:19;;;;;;;0.10;0.10;;;19.60;99.90;;;;;;5021925;28;20214;-80
2023/06/30 10:26:47;;;;;;;0.10;0.10;;;19.70;99.90;;;;;;5018268;28;20691;-81
2023/06/30 10:29:12;;;;;;;0.10;0.10;;;19.30;99.90;;;;;;5019493;28;20208;-81
2023/06/30 10:31:38;;;;;;;0.10;0.10;;;19.10;99.90;;;;;;5018263;28;20179;-80
2023/06/30 10:34:05;;;;;;;0.10;0.10;;;18.90;99.90;;;;;;5022044;28;20304;-80
2023/06/30 10:36:32;;;;;;;0.10;0.10;;;18.80;99.90;;;;;;5037317;28;20185;-81
2023/06/30 10:38:57;;;;;;;0.10;0.10;;;19.00;99.90;;;;;;5024925;28;20790;-80
2023/06/30 10:41:23;;;;;;;0.10;0.10;;;19.10;99.90;;;;;;5020616;28;20185;-80
2023/06/30 10:44:08;;;;;;;0.10;0.10;;;19.00;99.90;;;;;;5022138;28;20708;-82
2023/06/30 10:46:53;;;;;;;0.10;0.10;;;19.30;99.90;;;;;;5022469;28;20181;-80
2023/06/30 10:49:39;;;;;;;0.10;0.10;;;19.10;99.90;;;;;;5021274;28;20545;-80
2023/06/30 10:52:09;;;;;;;0.10;0.10;;;19.20;99.90;;;;;;5021329;28;20700;-81
2023/06/30 10:54:46;;;;;;;0.10;0.10;;;19.40;99.90;;;;;;5020370;28;20226;-81
2023/06/30 10:57:33;;;;;;;0.10;0.10;;;19.70;99.90;;;;;;5017682;28;20182;-80
2023/06/30 11:00:05;;;;;;;0.10;0.10;;;20.50;99.90;;;;;;5017788;28;20197;-81
2023/06/30 11:02:32;;;;;;;0.10;0.10;;;20.70;99.90;;;;;;5019844;28;20269;-80
2023/06/30 11:05:35;;;;;;;0.10;0.10;;;21.60;99.90;;;;;;5021776;28;20224;-81
2023/06/30 11:08:07;;;;;;;0.10;0.10;;;21.80;99.90;;;;;;5023032;28;20197;-83
2023/06/30 11:10:32;;;;;;;0.10;0.10;;;21.70;99.90;;;;;;5022329;28;20198;-80
2023/06/30 11:12:59;;;;;;;0.10;0.10;;;21.40;99.90;;;;;;5022907;28;20175;-81
2023/06/30 11:15:44;;;;;;;0.10;0.10;;;22.00;99.90;;;;;;5019418;28;20214;-81
2023/06/30 11:18:14;;;;;;;0.10;0.10;;;21.80;99.90;;;;;;5020570;28;21057;-83
2023/06/30 11:21:03;;;;;;;0.10;0.10;;;22.50;99.90;;;;;;5020273;28;20218;-81
2023/06/30 11:23:33;;;;;;;0.10;0.10;;;22.40;99.90;;;;;;5019042;28;20308;-80
2023/06/30 11:26:14;;;;;;;0.10;0.10;;;21.90;99.90;;;;;;5013570;28;20182;-81
2023/06/30 11:28:41;;;;;;;0.10;0.10;;;21.80;99.90;;;;;;5019702;28;20182;-81
2023/06/30 11:31:07;;;;;;;0.10;0.10;;;21.80;99.90;;;;;;5018134;28;20225;-83
2023/06/30 11:33:39;;;;;;;0.10;0.10;;;22.20;99.90;;;;;;5016267;28;20202;-81
2023/06/30 11:36:15;;;;;;;0.20;0.20;;;22.00;99.90;;;;;;5018340;28;20198;-81
2023/06/30 11:39:00;;;;;;;0.10;0.10;;;22.50;99.90;;;;;;5019132;28;20179;-80
2023/06/30 11:41:33;;;;;;;0.10;0.10;;;22.20;99.90;;;;;;5020309;28;20550;-81
2023/06/30 11:43:58;;;;;;;0.10;0.10;;;23.20;99.90;;;;;;5018900;28;20237;-81
2023/06/30 11:46:24;;;;;;;0.10;0.10;;;23.30;99.90;;;;;;5017292;28;20221;-81
2023/06/30 11:48:50;;;;;;;0.10;0.10;;;23.60;99.90;;;;;;5018732;28;20247;-81
2023/06/30 11:51:17;;;;;;;0.10;0.10;;;23.80;99.90;;;;;;5014803;28;20214;-81
2023/06/30 11:53:45;;;;;;;0.10;0.10;;;23.70;99.90;;;;;;5015882;28;20691;-81
2023/06/30 11:56:11;;;;;;;0.10;0.10;;;22.60;99.90;;;;;;5019578;28;20198;-81
2023/06/30 11:58:37;;;;;;;0.10;0.10;;;22.30;99.90;;;;;;5019007;28;20190;-81
2023/06/30 12:01:04;;;;;;;0.10;0.10;;;22.30;99.90;;;;;;5021214;28;20183;-81
2023/06/30 12:03:29;;;;;;;0.10;0.10;;;22.90;99.90;;;;;;5022218;28;20205;-81
2023/06/30 12:05:56;;;;;;;0.10;0.10;;;23.10;99.90;;;;;;5019772;28;20695;-80
2023/06/30 12:08:24;;;;;;;0.10;0.10;;;23.30;99.90;;;;;;5015754;28;20281;-80
2023/06/30 12:10:50;;;;;;;0.10;0.10;;;23.40;99.90;;;;;;5021669;28;20202;-80
2023/06/30 12:13:17;;;;;;;0.10;0.10;;;22.70;99.90;;;;;;5023960;28;20208;-80
2023/06/30 12:15:43;;;;;;;0.10;0.10;;;22.50;99.90;;;;;;5020963;28;20206;-81
2023/06/30 12:18:09;;;;;;;0.10;0.10;;;22.50;99.90;;;;;;5021141;28;20690;-81
2023/06/30 12:20:36;;;;;;;0.10;0.10;;;22.70;99.90;;;;;;5019534;28;20193;-81
2023/06/30 12:23:06;;;;;;;0.10;0.10;;;22.70;99.90;;;;;;5017248;28;20236;-80
2023/06/30 12:25:34;;;;;;;0.10;0.10;;;23.10;99.90;;;;;;5017929;28;20251;-81
2023/06/30 12:28:06;;;;;;;0.10;0.10;;;23.00;99.90;;;;;;5020503;28;20217;-81
2023/06/30 12:30:32;;;;;;;0.10;0.10;;;23.50;99.90;;;;;;5021634;28;20221;-81
2023/06/30 12:33:00;;;;;;;0.10;0.10;;;24.20;99.90;;;;;;5020974;28;20182;-81
2023/06/30 12:35:37;;;;;;;0.10;0.10;;;24.30;99.90;;;;;;5020591;28;20171;-80
2023/06/30 12:38:04;;;;;;;0.10;0.10;;;24.40;99.90;;;;;;5018200;28;20186;-81
2023/06/30 12:40:30;;;;;;;0.10;0.10;;;25.00;99.90;;;;;;5021358;28;20205;-81
2023/06/30 12:42:57;;;;;;;0.10;0.10;;;25.20;99.90;;;;;;5019099;28;20186;-81
2023/06/30 12:45:23;;;;;;;0.10;0.10;;;24.80;99.90;;;;;;5021026;28;20205;-80
2023/06/30 12:47:48;;;;;;;0.10;0.10;;;24.00;99.90;;;;;;5021686;28;20559;-81